Patrick Air Force Base
KCOF : now visible

Airfield :











YOU CAN JOIN US ON...

 
LOGIN :

Register | Disclaimer

   EN    FR    IT 

 









Legend :    VFR   Marginal VFR   IFR   Intensive IFR   Very Intensive IFR
Visi :
Ceiling :
>= 8 km
>= 3000ft
5 to 8 km
1000 to 3000 ft
1500m to 5 km
500 to 1000 ft
800 to 1500m
200 to 500 ft
< 800m
< 200 ft
Symbols :   Thunderstorms  Fog  Heavy snow  Heavy precipitations  Wind > 20 kt






- Airport Elevation : 8 ft


KCOF - Patrick Air Force Base

CURRENT METAR :
  • 231356Z AUTO 32013KT 5SM BR OVC002 09/09 A3010 RMK AO2 SLP197 T00890087 $

EXPIRED METARs :
  • 231256Z AUTO 32010KT 10SM OVC004 09/09 A3010 RMK AO2 SLP197 T00880086 $
  • 231156Z AUTO 32012KT 10SM OVC004 09/09 A3009 RMK AO2 CIG 003 RWY21 SLP194 70003 T00880086 10110 20088 $
  • 231126Z AUTO 32013KT 10SM OVC004 09/09 A3009 RMK AO2 SLP194 $

TAF TAF KCOF
Valid from the 23 at 11:00 until the 24 at 17:00 UTC


231100Z 2311/2417 34012KT 9999 OVC005 QNH3007INS
BECMG 2315/2316 31010KT 9999 BKN015 QNH3005INS
BECMG 2318/2319 31010KT 9999 SCT020 QNH3000INS
BECMG 2322/2323 30006KT 9999 SKC QNH3000INS TX18/2318Z TN07/2410Z
KZMA FIR / North America



MET'MAP, your aeronautical weather chart ! - Copyright ORBIFLY December 2007 - Disclaimer

ORBIFLY MET'MAP TEAM :

Programming & Development : Alexandra Zaïnal
Concept & original design : Baudouin d'Aumeries
Assistance for programming : Marc-Olivier Méhu
Technical & hardware support : Manuel Goepfert

Contact : metmap@orbifly.com




SOURCES & CREDITS :

   NOAA       Earth
Advisory